Zhezkazgan Airport
UAKD : now visible

Airfield :











YOU CAN JOIN US ON...

 
LOGIN :

Register | Disclaimer

   EN    FR    IT 

 









Legend :    VFR   Marginal VFR   IFR   Intensive IFR   Very Intensive IFR
Visi :
Ceiling :
>= 8 km
>= 3000ft
5 to 8 km
1000 to 3000 ft
1500m to 5 km
500 to 1000 ft
800 to 1500m
200 to 500 ft
< 800m
< 200 ft
Symbols :   Thunderstorms  Fog  Heavy snow  Heavy precipitations  Wind > 20 kt






- Airport Elevation : 1250 ft
- IATA code : DZN


UAKD - Zhezkazgan

CURRENT METAR :
  • 071000Z 08007MPS 040V100 7000 NSC 28/M04 Q1018 R04/0///65 NOSIG RMK QFE730/0973

EXPIRED METARs :
  • 070930Z 05007MPS 040V100 7000 NSC 27/M04 Q1019 R04/0///65 NOSIG RMK QFE730/0974
  • 070900Z 06006MPS 040V100 7000 NSC 27/M03 Q1019 R04/0///65 NOSIG RMK QFE731/0974
  • 070830Z 09006MPS 040V100 7000 FEW060 26/M04 Q1019 R04/0///65 NOSIG RMK QFE731/0974
  • 070800Z 07006MPS 030V090 7000 FEW060 26/M04 Q1020 R04/0///65 NOSIG RMK QFE731/0975
  • 070730Z 06006MPS 7000 FEW060 25/M04 Q1020 R04/0///65 NOSIG RMK QFE731/0975

TAF TAF UAKD
Valid from the 07 at 09:00 until the 07 at 18:00 UTC


070800Z 0709/0718 07006MPS CAVOK
TEMPO 0709/0715 07009MPS
UACC FIR / Asia



MET'MAP, your aeronautical weather chart ! - Copyright ORBIFLY December 2007 - Disclaimer

ORBIFLY MET'MAP TEAM :

Programming & Development : Alexandra Zaïnal
Concept & original design : Baudouin d'Aumeries
Assistance for programming : Marc-Olivier Méhu
Technical & hardware support : Manuel Goepfert

Contact : metmap@orbifly.com




SOURCES & CREDITS :

   NOAA       Earth
Advisory